Time;durP1;ratioP1;P1;durP2;ratioP2;P2;SDS_P1;SDS_P2;PMS_P1;PMS_P2;Temp;Humidity;BMP_temperature;BMP_pressure;BME280_temperature;BME280_humidity;BME280_pressure;Samples;Min_cycle;Max_cycle;Signal;HPM_P1;HPM_P2
2022/10/11 00:00:20;;;;;;;9.23;2.30;;;;;;;;;;5154496;27;20280;-78
2022/10/11 00:02:48;;;;;;;9.27;2.20;;;;;;;;;;5160706;27;20766;-79
2022/10/11 00:05:15;;;;;;;8.77;1.80;;;;;;;;;;5161882;27;20269;-79
2022/10/11 00:07:42;;;;;;;7.07;2.13;;;;;;;;;;5154813;27;20251;-79
2022/10/11 00:10:11;;;;;;;11.00;2.20;;;;;;;;;;5155442;27;20315;-79
2022/10/11 00:12:38;;;;;;;9.40;2.00;;;;;;;;;;5154722;27;20235;-79
2022/10/11 00:15:06;;;;;;;8.13;1.70;;;;;;;;;;5155290;27;20706;-79
2022/10/11 00:17:33;;;;;;;8.00;1.90;;;;;;;;;;5154537;27;20224;-79
2022/10/11 00:20:00;;;;;;;9.67;2.03;;;;;;;;;;5154208;27;20755;-79
2022/10/11 00:22:28;;;;;;;7.53;1.70;;;;;;;;;;5154971;27;20275;-78
2022/10/11 00:24:55;;;;;;;11.00;1.73;;;;;;;;;;5159994;27;20609;-79
2022/10/11 00:27:23;;;;;;;9.67;1.90;;;;;;;;;;5154797;27;20268;-79
2022/10/11 00:29:50;;;;;;;7.27;2.10;;;;;;;;;;5154223;27;20298;-79
2022/10/11 00:32:18;;;;;;;7.70;1.90;;;;;;;;;;5153239;27;20681;-79
2022/10/11 00:34:45;;;;;;;10.13;1.93;;;;;;;;;;5154348;27;20196;-79
2022/10/11 00:37:12;;;;;;;11.87;2.10;;;;;;;;;;5154531;27;20231;-79
2022/10/11 00:39:39;;;;;;;8.33;2.00;;;;;;;;;;5155094;27;20627;-79
2022/10/11 00:42:11;;;;;;;6.73;1.70;;;;;;;;;;5161184;27;20223;-79
2022/10/11 00:44:40;;;;;;;8.03;1.83;;;;;;;;;;5156296;27;20200;-79
2022/10/11 00:47:09;;;;;;;7.43;1.77;;;;;;;;;;5151821;27;20664;-79
2022/10/11 00:49:37;;;;;;;10.23;2.17;;;;;;;;;;5154174;27;20251;-79
2022/10/11 00:52:07;;;;;;;7.33;2.07;;;;;;;;;;5159289;27;20224;-79
2022/10/11 00:54:36;;;;;;;14.17;2.27;;;;;;;;;;5154010;27;20272;-79
2022/10/11 00:57:05;;;;;;;8.60;2.27;;;;;;;;;;5154518;27;20283;-79
2022/10/11 00:59:38;;;;;;;6.50;1.60;;;;;;;;;;5158887;27;20236;-79
2022/10/11 01:02:07;;;;;;;7.73;1.77;;;;;;;;;;5154210;27;20207;-79
2022/10/11 01:04:34;;;;;;;7.63;1.93;;;;;;;;;;5153517;27;20224;-79
2022/10/11 01:07:02;;;;;;;10.00;2.07;;;;;;;;;;5153731;27;20228;-79
2022/10/11 01:09:30;;;;;;;8.57;2.60;;;;;;;;;;5153931;27;20264;-79
2022/10/11 01:11:59;;;;;;;12.90;2.50;;;;;;;;;;5152894;27;20280;-79
2022/10/11 01:14:36;;;;;;;10.13;2.37;;;;;;;;;;5153134;27;20235;-79
2022/10/11 01:17:09;;;;;;;9.00;2.50;;;;;;;;;;5149812;27;20200;-78
2022/10/11 01:19:45;;;;;;;8.50;2.20;;;;;;;;;;5153520;27;20632;-78
2022/10/11 01:22:21;;;;;;;9.17;2.90;;;;;;;;;;5154319;27;20192;-78
2022/10/11 01:24:57;;;;;;;8.80;2.60;;;;;;;;;;5156754;27;20248;-78
2022/10/11 01:27:35;;;;;;;8.00;2.40;;;;;;;;;;5156774;27;20241;-78
2022/10/11 01:30:20;;;;;;;9.93;3.00;;;;;;;;;;5159483;27;20255;-78
2022/10/11 01:32:51;;;;;;;8.50;3.20;;;;;;;;;;5151800;27;20686;-79
2022/10/11 01:35:21;;;;;;;9.53;3.10;;;;;;;;;;5153748;27;20231;-78
2022/10/11 01:37:51;;;;;;;6.17;2.30;;;;;;;;;;5156111;27;20231;-78
2022/10/11 01:40:22;;;;;;;7.67;3.23;;;;;;;;;;5153672;27;20224;-78
2022/10/11 01:42:49;;;;;;;7.97;2.70;;;;;;;;;;5148427;27;20236;-80
2022/10/11 01:45:18;;;;;;;9.43;3.47;;;;;;;;;;5145740;27;20228;-79
2022/10/11 01:47:47;;;;;;;10.87;3.00;;;;;;;;;;5153958;27;20683;-80
2022/10/11 01:50:33;;;;;;;8.97;3.20;;;;;;;;;;5153465;27;20303;-80
2022/10/11 01:53:05;;;;;;;11.53;3.27;;;;;;;;;;5151413;27;20224;-80
2022/10/11 01:55:36;;;;;;;9.67;3.17;;;;;;;;;;5157151;27;20570;-80
2022/10/11 01:58:10;;;;;;;13.83;3.70;;;;;;;;;;5150411;27;20224;-80
2022/10/11 02:00:43;;;;;;;9.80;3.50;;;;;;;;;;5153386;27;20228;-78
2022/10/11 02:03:18;;;;;;;9.60;3.23;;;;;;;;;;5153207;27;20279;-79
2022/10/11 02:05:47;;;;;;;8.73;3.10;;;;;;;;;;5154698;27;20235;-79
2022/10/11 02:08:17;;;;;;;8.97;3.50;;;;;;;;;;5154404;27;20230;-80
2022/10/11 02:10:47;;;;;;;11.53;3.50;;;;;;;;;;5166762;27;20220;-80
2022/10/11 02:13:19;;;;;;;9.60;3.73;;;;;;;;;;5152021;27;20279;-80
2022/10/11 02:15:48;;;;;;;11.30;3.80;;;;;;;;;;5153190;27;20655;-80
2022/10/11 02:18:20;;;;;;;8.03;3.80;;;;;;;;;;5152837;27;20257;-80
2022/10/11 02:20:47;;;;;;;9.63;3.80;;;;;;;;;;5153194;27;20683;-78
2022/10/11 02:23:17;;;;;;;12.73;3.90;;;;;;;;;;5153056;27;20223;-80
2022/10/11 02:25:45;;;;;;;10.50;3.80;;;;;;;;;;5152610;27;20240;-79
2022/10/11 02:28:15;;;;;;;10.70;3.77;;;;;;;;;;5152782;27;20216;-80
2022/10/11 02:30:43;;;;;;;8.27;3.70;;;;;;;;;;5151916;27;20307;-78
2022/10/11 02:33:12;;;;;;;8.67;3.97;;;;;;;;;;5153297;27;20239;-78
2022/10/11 02:35:43;;;;;;;11.67;4.47;;;;;;;;;;5152167;27;20283;-78
2022/10/11 02:38:14;;;;;;;11.50;4.60;;;;;;;;;;5151496;27;20246;-80
2022/10/11 02:40:45;;;;;;;8.00;3.53;;;;;;;;;;5146509;27;20684;-80
2022/10/11 02:43:16;;;;;;;6.70;3.57;;;;;;;;;;5146026;27;20196;-78
2022/10/11 02:45:45;;;;;;;9.07;3.60;;;;;;;;;;5152574;27;20577;-80
2022/10/11 02:48:13;;;;;;;11.70;4.00;;;;;;;;;;5151654;27;20283;-79
2022/10/11 02:50:42;;;;;;;6.53;3.30;;;;;;;;;;5152776;27;20256;-80
2022/10/11 02:53:10;;;;;;;9.13;3.50;;;;;;;;;;5153768;27;20279;-80
2022/10/11 02:55:37;;;;;;;9.43;3.37;;;;;;;;;;5154873;27;20223;-80
2022/10/11 02:58:04;;;;;;;13.17;2.70;;;;;;;;;;5156178;27;20573;-79
2022/10/11 03:00:31;;;;;;;10.47;2.47;;;;;;;;;;5157297;27;20231;-79
2022/10/11 03:02:59;;;;;;;7.10;2.77;;;;;;;;;;5156324;27;20232;-79
2022/10/11 03:05:26;;;;;;;8.57;3.00;;;;;;;;;;5156130;27;20188;-79
2022/10/11 03:07:55;;;;;;;10.30;2.83;;;;;;;;;;5155412;27;20322;-79
2022/10/11 03:10:22;;;;;;;9.10;2.50;;;;;;;;;;5156842;27;20292;-80
2022/10/11 03:12:49;;;;;;;7.13;2.27;;;;;;;;;;5156375;27;20200;-80
2022/10/11 03:15:16;;;;;;;7.60;2.40;;;;;;;;;;5156387;27;20224;-80
2022/10/11 03:17:43;;;;;;;10.50;2.50;;;;;;;;;;5156849;27;20287;-80
2022/10/11 03:20:11;;;;;;;9.80;2.20;;;;;;;;;;5155332;27;20272;-79
2022/10/11 03:22:39;;;;;;;8.90;2.03;;;;;;;;;;5155946;27;20231;-80
2022/10/11 03:25:08;;;;;;;5.17;1.97;;;;;;;;;;5155943;27;20225;-79
2022/10/11 03:27:35;;;;;;;6.60;1.90;;;;;;;;;;5155857;27;20228;-79
2022/10/11 03:30:03;;;;;;;8.97;1.70;;;;;;;;;;5156010;27;20327;-80
2022/10/11 03:32:30;;;;;;;8.30;2.03;;;;;;;;;;5155403;27;20223;-79
2022/10/11 03:34:57;;;;;;;7.97;2.10;;;;;;;;;;5161386;27;20638;-79
2022/10/11 03:37:25;;;;;;;6.67;2.27;;;;;;;;;;5155617;27;20235;-79
2022/10/11 03:39:52;;;;;;;5.90;1.87;;;;;;;;;;5155062;27;20585;-79
2022/10/11 03:42:21;;;;;;;9.70;2.10;;;;;;;;;;5155832;27;20224;-79
2022/10/11 03:44:50;;;;;;;6.30;1.70;;;;;;;;;;5155540;27;20620;-79
2022/10/11 03:47:17;;;;;;;7.07;1.90;;;;;;;;;;5163997;27;20192;-79
2022/10/11 03:49:44;;;;;;;8.60;2.03;;;;;;;;;;5154931;27;20292;-79
2022/10/11 03:52:12;;;;;;;7.10;1.90;;;;;;;;;;5155484;27;20291;-80
2022/10/11 03:54:39;;;;;;;8.00;2.10;;;;;;;;;;5154462;27;20243;-80
2022/10/11 03:57:06;;;;;;;7.80;1.70;;;;;;;;;;5155864;27;20249;-79
2022/10/11 03:59:35;;;;;;;8.03;1.90;;;;;;;;;;5158726;27;20228;-79
2022/10/11 04:02:03;;;;;;;7.70;1.80;;;;;;;;;;5147509;27;20224;-79
2022/10/11 04:04:30;;;;;;;8.17;1.80;;;;;;;;;;5151242;27;20558;-80
2022/10/11 04:06:57;;;;;;;7.57;1.87;;;;;;;;;;5154630;27;20291;-79
2022/10/11 04:09:25;;;;;;;7.33;1.87;;;;;;;;;;5154858;27;21148;-79
2022/10/11 04:11:52;;;;;;;9.07;1.93;;;;;;;;;;5160384;27;20223;-79
2022/10/11 04:14:19;;;;;;;8.33;1.70;;;;;;;;;;5155008;27;20228;-79
2022/10/11 04:16:47;;;;;;;8.17;2.03;;;;;;;;;;5157314;27;20288;-80
2022/10/11 04:19:16;;;;;;;6.30;1.77;;;;;;;;;;5154679;27;20754;-80
2022/10/11 04:21:43;;;;;;;7.20;1.70;;;;;;;;;;5155027;27;20235;-79
2022/10/11 04:24:11;;;;;;;11.47;1.87;;;;;;;;;;5153851;27;20199;-79
2022/10/11 04:26:38;;;;;;;8.87;1.90;;;;;;;;;;5154905;27;20303;-80
2022/10/11 04:29:05;;;;;;;8.97;1.90;;;;;;;;;;5155866;27;20266;-79
2022/10/11 04:31:33;;;;;;;8.30;1.53;;;;;;;;;;5154865;27;20343;-79
2022/10/11 04:34:02;;;;;;;5.43;1.50;;;;;;;;;;5154322;27;20994;-79
2022/10/11 04:36:31;;;;;;;4.03;1.50;;;;;;;;;;5154548;27;20275;-79
2022/10/11 04:39:00;;;;;;;7.57;1.80;;;;;;;;;;5154118;27;20726;-79
2022/10/11 04:41:28;;;;;;;8.97;2.03;;;;;;;;;;5159053;27;20204;-79
2022/10/11 04:43:55;;;;;;;5.23;1.80;;;;;;;;;;5150349;27;20196;-79
2022/10/11 04:46:22;;;;;;;5.77;2.20;;;;;;;;;;5154404;27;20283;-80
2022/10/11 04:48:49;;;;;;;7.13;1.67;;;;;;;;;;5154651;27;20279;-80
2022/10/11 04:51:18;;;;;;;9.80;2.00;;;;;;;;;;5153808;27;20295;-79
2022/10/11 04:53:45;;;;;;;8.37;1.90;;;;;;;;;;5153840;27;20283;-79
2022/10/11 04:56:14;;;;;;;6.07;2.00;;;;;;;;;;5154291;27;20283;-79
2022/10/11 04:58:41;;;;;;;9.43;2.13;;;;;;;;;;5153536;27;20196;-79
2022/10/11 05:01:09;;;;;;;8.07;1.90;;;;;;;;;;5153866;27;20678;-82
2022/10/11 05:03:36;;;;;;;5.50;2.10;;;;;;;;;;5154724;27;20231;-82
2022/10/11 05:06:04;;;;;;;11.27;2.37;;;;;;;;;;5154042;27;20192;-82
2022/10/11 05:08:33;;;;;;;6.70;2.23;;;;;;;;;;5154612;27;20310;-81
2022/10/11 05:11:01;;;;;;;6.00;1.97;;;;;;;;;;5158697;27;20694;-83
2022/10/11 05:13:29;;;;;;;6.53;1.90;;;;;;;;;;5157551;27;20235;-82
2022/10/11 05:15:57;;;;;;;10.23;2.20;;;;;;;;;;5152825;27;20269;-82
2022/10/11 05:18:24;;;;;;;8.23;1.90;;;;;;;;;;5153303;27;20227;-82
2022/10/11 05:20:59;;;;;;;7.10;1.83;;;;;;;;;;5152849;27;20390;-84
2022/10/11 05:23:26;;;;;;;11.33;2.30;;;;;;;;;;5154835;27;20283;-81
2022/10/11 05:25:54;;;;;;;5.67;2.10;;;;;;;;;;5155548;27;20223;-83
2022/10/11 05:28:21;;;;;;;8.57;1.90;;;;;;;;;;5151935;27;20283;-82
2022/10/11 05:30:49;;;;;;;6.23;1.80;;;;;;;;;;5153951;27;20734;-81
2022/10/11 05:33:16;;;;;;;6.07;1.90;;;;;;;;;;5154342;27;20636;-83
2022/10/11 05:35:43;;;;;;;9.13;1.83;;;;;;;;;;5153437;27;20275;-82
2022/10/11 05:38:10;;;;;;;6.23;1.80;;;;;;;;;;5155379;27;20203;-81
2022/10/11 05:40:37;;;;;;;10.93;2.13;;;;;;;;;;5153627;27;20336;-81
2022/10/11 05:43:06;;;;;;;8.97;2.00;;;;;;;;;;5152849;27;20242;-81
2022/10/11 05:45:36;;;;;;;10.77;2.00;;;;;;;;;;5153753;27;20226;-82
2022/10/11 05:48:03;;;;;;;7.23;1.90;;;;;;;;;;5153438;27;20224;-84
2022/10/11 05:50:30;;;;;;;9.40;1.90;;;;;;;;;;5152814;27;20320;-83
2022/10/11 05:52:57;;;;;;;5.77;2.10;;;;;;;;;;5153183;27;20259;-83
2022/10/11 05:55:25;;;;;;;10.43;2.17;;;;;;;;;;5155226;27;20613;-83
2022/10/11 05:57:52;;;;;;;6.40;1.80;;;;;;;;;;5154862;27;20192;-83
2022/10/11 06:00:21;;;;;;;9.23;2.10;;;;;;;;;;5152880;27;20231;-83
2022/10/11 06:02:48;;;;;;;7.17;2.00;;;;;;;;;;5153141;27;21652;-83
2022/10/11 06:05:16;;;;;;;5.73;1.60;;;;;;;;;;5161893;27;20310;-83
2022/10/11 06:07:43;;;;;;;7.10;2.17;;;;;;;;;;5153651;27;20809;-82
2022/10/11 06:10:11;;;;;;;8.67;2.10;;;;;;;;;;5153151;27;20303;-83
2022/10/11 06:12:38;;;;;;;10.40;2.07;;;;;;;;;;5153916;27;20208;-83
2022/10/11 06:15:07;;;;;;;7.33;2.20;;;;;;;;;;5158730;27;20192;-83
2022/10/11 06:17:35;;;;;;;5.93;1.77;;;;;;;;;;5152883;27;20259;-83
2022/10/11 06:20:03;;;;;;;7.93;1.93;;;;;;;;;;5153410;27;20197;-83
2022/10/11 06:22:30;;;;;;;7.83;1.60;;;;;;;;;;5153834;27;20200;-83
2022/10/11 06:24:57;;;;;;;8.73;2.00;;;;;;;;;;5153398;27;20736;-84
2022/10/11 06:27:24;;;;;;;9.13;1.80;;;;;;;;;;5153347;27;20264;-84
2022/10/11 06:29:52;;;;;;;8.23;1.90;;;;;;;;;;5141138;27;20926;-83
2022/10/11 06:32:19;;;;;;;4.60;2.07;;;;;;;;;;5157996;27;20204;-84
2022/10/11 06:34:48;;;;;;;7.03;1.87;;;;;;;;;;5157434;27;20196;-83
2022/10/11 06:37:15;;;;;;;7.10;1.80;;;;;;;;;;5157814;27;20193;-84
2022/10/11 06:39:42;;;;;;;7.50;1.73;;;;;;;;;;5157125;27;20196;-84
2022/10/11 06:42:10;;;;;;;10.73;2.17;;;;;;;;;;5157656;27;20280;-84
2022/10/11 06:44:37;;;;;;;9.10;1.73;;;;;;;;;;5156717;27;20232;-83
2022/10/11 06:47:06;;;;;;;10.33;1.80;;;;;;;;;;5157604;27;20200;-83
2022/10/11 06:49:33;;;;;;;7.57;1.87;;;;;;;;;;5157523;27;20204;-83
2022/10/11 06:52:02;;;;;;;8.07;2.03;;;;;;;;;;5157460;27;20220;-82
2022/10/11 06:54:29;;;;;;;8.23;2.00;;;;;;;;;;5157753;27;20204;-83
2022/10/11 06:56:57;;;;;;;7.23;1.90;;;;;;;;;;5157237;27;20658;-83
2022/10/11 06:59:24;;;;;;;7.23;2.00;;;;;;;;;;5157206;27;20245;-83
2022/10/11 07:01:51;;;;;;;6.37;2.17;;;;;;;;;;5156953;27;20237;-83
2022/10/11 07:04:18;;;;;;;10.87;2.30;;;;;;;;;;5157562;27;20192;-83
2022/10/11 07:06:45;;;;;;;8.63;1.97;;;;;;;;;;5157152;27;20691;-83
2022/10/11 07:09:14;;;;;;;8.27;1.70;;;;;;;;;;5157235;27;20260;-83
2022/10/11 07:11:41;;;;;;;6.47;1.80;;;;;;;;;;5157470;27;20643;-83
2022/10/11 07:14:10;;;;;;;10.57;1.83;;;;;;;;;;5156611;27;20196;-83
2022/10/11 07:16:37;;;;;;;5.30;1.87;;;;;;;;;;5157090;27;20231;-83
2022/10/11 07:19:05;;;;;;;9.50;1.70;;;;;;;;;;5157222;27;20249;-83
2022/10/11 07:21:33;;;;;;;6.83;1.90;;;;;;;;;;5157275;27;20250;-83
2022/10/11 07:24:01;;;;;;;6.87;1.90;;;;;;;;;;5156818;27;20201;-82
2022/10/11 07:26:30;;;;;;;4.97;1.83;;;;;;;;;;5157368;27;20265;-83
2022/10/11 07:28:57;;;;;;;8.17;2.00;;;;;;;;;;5170871;27;20215;-83
2022/10/11 07:31:25;;;;;;;7.77;1.80;;;;;;;;;;5167844;27;20661;-83
2022/10/11 07:33:53;;;;;;;9.53;2.13;;;;;;;;;;5157395;27;20228;-83
2022/10/11 07:36:22;;;;;;;9.00;1.77;;;;;;;;;;5156421;27;20256;-83
2022/10/11 07:38:50;;;;;;;9.43;1.90;;;;;;;;;;5156824;27;20192;-83
2022/10/11 07:41:17;;;;;;;10.20;2.47;;;;;;;;;;5156016;27;20231;-83
2022/10/11 07:43:48;;;;;;;4.60;1.60;;;;;;;;;;5157088;27;20253;-83
2022/10/11 07:46:16;;;;;;;11.80;1.83;;;;;;;;;;5156067;27;20276;-83
2022/10/11 07:48:43;;;;;;;7.67;1.90;;;;;;;;;;5156673;27;20671;-83
2022/10/11 07:51:11;;;;;;;7.00;1.70;;;;;;;;;;5156214;27;20248;-83
2022/10/11 07:53:39;;;;;;;6.13;1.77;;;;;;;;;;5156576;27;20228;-83
2022/10/11 07:56:07;;;;;;;5.63;1.80;;;;;;;;;;5156540;27;20197;-83
2022/10/11 07:58:34;;;;;;;6.87;1.97;;;;;;;;;;5156123;27;20196;-83
2022/10/11 08:01:02;;;;;;;10.73;2.30;;;;;;;;;;5156139;27;20204;-83
2022/10/11 08:03:30;;;;;;;9.47;2.30;;;;;;;;;;5162593;27;20277;-83
2022/10/11 08:05:59;;;;;;;10.90;2.60;;;;;;;;;;5156457;27;20196;-83
2022/10/11 08:08:27;;;;;;;6.27;2.20;;;;;;;;;;5155768;27;20232;-83
2022/10/11 08:10:54;;;;;;;9.30;2.40;;;;;;;;;;5156798;27;20216;-84
2022/10/11 08:13:21;;;;;;;9.25;2.22;;;;;;;;;;5156126;27;20192;-84
2022/10/11 08:15:49;;;;;;;8.27;2.53;;;;;;;;;;5155751;27;20240;-83
2022/10/11 08:18:18;;;;;;;4.55;1.80;;;;;;;;;;5156650;27;20248;-84
2022/10/11 08:20:45;;;;;;;5.95;2.22;;;;;;;;;;5156421;27;20196;-84
2022/10/11 08:23:12;;;;;;;6.68;2.10;;;;;;;;;;5156092;27;20663;-84
2022/10/11 08:25:41;;;;;;;4.20;1.80;;;;;;;;;;5176376;27;20632;-84
2022/10/11 08:28:09;;;;;;;7.78;2.08;;;;;;;;;;5168989;27;20241;-84
2022/10/11 08:30:36;;;;;;;7.60;2.08;;;;;;;;;;5156500;27;20220;-84
2022/10/11 08:33:03;;;;;;;6.35;1.70;;;;;;;;;;5155629;27;20212;-84
2022/10/11 08:35:32;;;;;;;5.13;1.60;;;;;;;;;;5157830;27;20196;-84
2022/10/11 08:37:59;;;;;;;5.80;1.80;;;;;;;;;;5155640;27;20601;-84
2022/10/11 08:40:27;;;;;;;6.18;2.08;;;;;;;;;;5155443;27;20223;-84
2022/10/11 08:42:57;;;;;;;6.63;1.80;;;;;;;;;;5155150;27;20667;-84
2022/10/11 08:45:27;;;;;;;4.95;1.67;;;;;;;;;;5155250;27;20200;-84
2022/10/11 08:47:58;;;;;;;5.60;1.65;;;;;;;;;;5134883;27;20201;-84
2022/10/11 08:50:25;;;;;;;7.80;2.38;;;;;;;;;;5155354;27;20200;-84
2022/10/11 08:52:56;;;;;;;8.38;1.95;;;;;;;;;;5153636;27;20251;-84
2022/10/11 08:55:26;;;;;;;6.13;1.50;;;;;;;;;;5155094;27;20546;-84
2022/10/11 08:57:55;;;;;;;7.80;2.03;;;;;;;;;;5155206;27;20245;-84
2022/10/11 09:00:24;;;;;;;5.13;1.63;;;;;;;;;;5170033;27;20227;-84
2022/10/11 09:02:56;;;;;;;6.07;1.70;;;;;;;;;;5155349;27;20224;-83
2022/10/11 09:05:25;;;;;;;5.85;1.90;;;;;;;;;;5154994;27;20196;-84
2022/10/11 09:08:02;;;;;;;7.15;2.00;;;;;;;;;;5154910;27;20228;-84
2022/10/11 09:10:46;;;;;;;6.18;1.55;;;;;;;;;;5155819;27;20261;-84
2022/10/11 09:13:29;;;;;;;7.03;1.73;;;;;;;;;;5154156;27;20287;-84
2022/10/11 09:16:01;;;;;;;6.93;1.80;;;;;;;;;;5154159;27;20207;-84
2022/10/11 09:18:39;;;;;;;5.10;1.73;;;;;;;;;;5154700;27;20196;-84
2022/10/11 09:21:16;;;;;;;4.78;1.70;;;;;;;;;;5168043;27;20245;-84
2022/10/11 09:23:59;;;;;;;4.30;1.60;;;;;;;;;;5160080;27;20221;-84
2022/10/11 09:26:28;;;;;;;5.95;1.60;;;;;;;;;;5175602;27;20601;-84
2022/10/11 09:28:58;;;;;;;6.25;1.98;;;;;;;;;;5156341;27;20219;-85
2022/10/11 09:31:25;;;;;;;5.00;1.40;;;;;;;;;;5154911;27;20696;-85
2022/10/11 09:33:53;;;;;;;5.60;1.80;;;;;;;;;;5154953;27;20212;-85
2022/10/11 09:36:23;;;;;;;7.93;1.80;;;;;;;;;;5154458;27;20235;-84
2022/10/11 09:38:55;;;;;;;8.48;2.00;;;;;;;;;;5154602;27;20664;-84
2022/10/11 09:41:26;;;;;;;5.60;1.90;;;;;;;;;;5153730;27;20241;-84
2022/10/11 09:43:53;;;;;;;7.97;2.92;;;;;;;;;;5154670;27;20231;-85
2022/10/11 09:46:22;;;;;;;7.13;3.38;;;;;;;;;;5154219;27;20204;-84
2022/10/11 09:48:51;;;;;;;8.55;3.00;;;;;;;;;;5154282;27;20648;-85
2022/10/11 09:51:20;;;;;;;6.68;3.08;;;;;;;;;;5154026;27;20220;-85
2022/10/11 09:53:53;;;;;;;7.15;2.92;;;;;;;;;;5164759;27;20207;-84
2022/10/11 09:56:22;;;;;;;5.65;2.30;;;;;;;;;;5174433;27;20203;-84
2022/10/11 09:58:49;;;;;;;6.15;2.45;;;;;;;;;;5175397;27;20195;-84
2022/10/11 10:01:23;;;;;;;5.13;2.78;;;;;;;;;;5162688;27;20212;-84
2022/10/11 10:04:03;;;;;;;5.15;2.75;;;;;;;;;;5154203;27;20251;-84
2022/10/11 10:06:31;;;;;;;5.25;2.22;;;;;;;;;;5153841;27;20232;-84
2022/10/11 10:09:19;;;;;;;6.20;2.30;;;;;;;;;;5154021;27;20228;-84
2022/10/11 10:11:46;;;;;;;5.60;2.40;;;;;;;;;;5140112;27;20760;-84
2022/10/11 10:14:20;;;;;;;5.05;2.40;;;;;;;;;;5133490;28;20248;-84
2022/10/11 10:16:48;;;;;;;4.95;2.03;;;;;;;;;;5139230;27;20249;-84
2022/10/11 10:19:20;;;;;;;4.78;2.45;;;;;;;;;;5153827;27;20248;-84
2022/10/11 10:21:48;;;;;;;7.28;2.50;;;;;;;;;;5154009;27;20572;-84
2022/10/11 10:24:19;;;;;;;5.90;2.28;;;;;;;;;;5154298;27;20197;-84
2022/10/11 10:27:05;;;;;;;4.32;2.03;;;;;;;;;;5153789;27;20318;-84
2022/10/11 10:29:51;;;;;;;5.57;2.50;;;;;;;;;;5153745;27;20273;-84
2022/10/11 10:32:22;;;;;;;7.63;2.63;;;;;;;;;;5154222;27;20264;-84
2022/10/11 10:34:55;;;;;;;8.82;2.67;;;;;;;;;;5154085;27;20787;-84
2022/10/11 10:37:25;;;;;;;9.48;3.10;;;;;;;;;;5154191;27;20201;-84
2022/10/11 10:39:56;;;;;;;6.57;2.90;;;;;;;;;;5153124;27;20323;-84
2022/10/11 10:42:23;;;;;;;7.18;3.30;;;;;;;;;;5154121;27;20253;-84
2022/10/11 10:44:52;;;;;;;6.55;2.83;;;;;;;;;;5153178;27;20667;-84
2022/10/11 10:47:22;;;;;;;6.13;3.38;;;;;;;;;;5153619;27;20192;-84
2022/10/11 10:49:55;;;;;;;6.75;3.22;;;;;;;;;;5154045;27;20276;-84
2022/10/11 10:52:42;;;;;;;8.52;3.33;;;;;;;;;;5152980;27;20299;-84
2022/10/11 10:55:16;;;;;;;9.00;3.30;;;;;;;;;;5153474;27;20199;-84
2022/10/11 10:57:53;;;;;;;8.65;3.90;;;;;;;;;;5153494;27;20675;-84
2022/10/11 11:00:21;;;;;;;7.55;3.28;;;;;;;;;;5153728;27;20200;-84
2022/10/11 11:02:51;;;;;;;8.70;3.17;;;;;;;;;;5155292;27;20220;-84
2022/10/11 11:05:24;;;;;;;9.18;3.58;;;;;;;;;;5155010;27;20269;-84
2022/10/11 11:07:53;;;;;;;9.60;3.72;;;;;;;;;;5153638;27;20703;-84
2022/10/11 11:10:24;;;;;;;9.98;3.83;;;;;;;;;;5170693;27;20219;-84
2022/10/11 11:12:54;;;;;;;7.03;3.88;;;;;;;;;;5132470;28;21090;-84
2022/10/11 11:15:25;;;;;;;6.20;3.78;;;;;;;;;;5136205;27;20205;-84
2022/10/11 11:17:59;;;;;;;7.63;4.15;;;;;;;;;;5177768;27;20901;-84
2022/10/11 11:20:31;;;;;;;10.48;4.68;;;;;;;;;;5178313;27;20655;-84
2022/10/11 11:23:03;;;;;;;10.55;4.80;;;;;;;;;;5160028;27;20244;-84
2022/10/11 11:25:37;;;;;;;9.55;4.85;;;;;;;;;;5157151;27;20232;-83
2022/10/11 11:28:11;;;;;;;9.38;4.88;;;;;;;;;;5173884;27;20199;-84
2022/10/11 11:30:47;;;;;;;8.25;4.80;;;;;;;;;;5143157;27;20232;-84
2022/10/11 11:33:20;;;;;;;10.45;5.10;;;;;;;;;;5156616;27;20263;-84
2022/10/11 11:35:49;;;;;;;9.18;4.88;;;;;;;;;;5156198;27;20678;-85
2022/10/11 11:38:19;;;;;;;8.43;4.57;;;;;;;;;;5155833;27;20245;-84
2022/10/11 11:40:50;;;;;;;8.88;4.03;;;;;;;;;;5156824;27;20188;-84
2022/10/11 11:43:21;;;;;;;9.30;4.35;;;;;;;;;;5162650;27;20200;-84
2022/10/11 11:45:50;;;;;;;6.63;3.38;;;;;;;;;;5156798;27;20238;-84
2022/10/11 11:48:19;;;;;;;9.52;3.60;;;;;;;;;;5136032;27;20250;-84
2022/10/11 11:50:51;;;;;;;8.80;3.50;;;;;;;;;;5144498;27;20268;-84
2022/10/11 11:53:24;;;;;;;6.28;3.17;;;;;;;;;;5156158;27;20307;-84
2022/10/11 11:55:58;;;;;;;7.65;3.60;;;;;;;;;;5156768;27;20298;-84
2022/10/11 11:58:30;;;;;;;9.82;3.92;;;;;;;;;;5156276;27;20230;-84
2022/10/11 12:01:00;;;;;;;10.07;3.70;;;;;;;;;;5156303;27;20611;-84
2022/10/11 12:03:30;;;;;;;7.75;3.90;;;;;;;;;;5156127;27;20252;-84
2022/10/11 12:06:16;;;;;;;8.82;3.63;;;;;;;;;;5156726;27;20220;-84
2022/10/11 12:08:44;;;;;;;9.20;4.00;;;;;;;;;;5156196;27;20258;-84
2022/10/11 12:11:20;;;;;;;6.15;3.45;;;;;;;;;;5155561;27;20197;-84
2022/10/11 12:13:48;;;;;;;8.30;3.70;;;;;;;;;;5156101;27;20605;-84
2022/10/11 12:16:17;;;;;;;10.43;3.50;;;;;;;;;;5155405;27;20191;-83
2022/10/11 12:18:49;;;;;;;7.88;3.67;;;;;;;;;;5155552;27;20675;-84
2022/10/11 12:21:20;;;;;;;6.95;3.60;;;;;;;;;;5155379;27;20249;-83
2022/10/11 12:23:48;;;;;;;8.38;3.20;;;;;;;;;;5155629;27;20256;-84
2022/10/11 12:26:39;;;;;;;7.65;3.70;;;;;;;;;;5155506;27;20192;-84
2022/10/11 12:29:21;;;;;;;8.73;3.72;;;;;;;;;;5155954;27;20272;-83
2022/10/11 12:31:50;;;;;;;10.00;3.95;;;;;;;;;;5155644;27;20623;-84
2022/10/11 12:34:35;;;;;;;7.30;3.38;;;;;;;;;;5160223;27;20278;-84
2022/10/11 12:37:18;;;;;;;5.43;3.22;;;;;;;;;;5155067;27;20196;-84
2022/10/11 12:39:50;;;;;;;9.10;3.53;;;;;;;;;;5154733;27;20554;-84
2022/10/11 12:42:28;;;;;;;6.00;3.20;;;;;;;;;;5156004;27;20275;-84
2022/10/11 12:45:13;;;;;;;5.40;3.22;;;;;;;;;;5155861;27;20764;-84
2022/10/11 12:47:44;;;;;;;9.27;3.55;;;;;;;;;;5168254;27;20223;-84
2022/10/11 12:50:16;;;;;;;6.40;3.20;;;;;;;;;;5174174;27;20247;-84
2022/10/11 12:52:51;;;;;;;6.53;3.00;;;;;;;;;;5154375;27;20259;-84
2022/10/11 12:55:30;;;;;;;7.30;3.10;;;;;;;;;;5155820;27;20231;-84
2022/10/11 12:58:15;;;;;;;6.78;3.00;;;;;;;;;;5134659;27;20306;-85
2022/10/11 13:00:45;;;;;;;5.78;3.17;;;;;;;;;;5134402;27;20600;-84
2022/10/11 13:03:36;;;;;;;8.95;2.90;;;;;;;;;;5144714;27;20196;-84
2022/10/11 13:06:11;;;;;;;6.55;3.05;;;;;;;;;;5133752;27;20595;-84
2022/10/11 13:08:41;;;;;;;8.02;3.50;;;;;;;;;;5154844;27;20240;-84
2022/10/11 13:11:10;;;;;;;8.18;3.50;;;;;;;;;;5155894;27;20705;-84
2022/10/11 13:13:39;;;;;;;6.13;2.95;;;;;;;;;;5169886;27;20216;-84
2022/10/11 13:16:08;;;;;;;4.90;2.70;;;;;;;;;;5154622;27;20213;-84
2022/10/11 13:18:36;;;;;;;5.90;2.95;;;;;;;;;;5154548;27;20545;-84
2022/10/11 13:21:03;;;;;;;9.00;2.78;;;;;;;;;;5156088;27;20196;-84
2022/10/11 13:23:35;;;;;;;5.70;2.85;;;;;;;;;;5176007;27;20243;-84
2022/10/11 13:26:03;;;;;;;4.93;2.50;;;;;;;;;;5164165;27;20663;-84
2022/10/11 13:28:31;;;;;;;8.98;2.70;;;;;;;;;;5154317;27;20703;-84
2022/10/11 13:31:00;;;;;;;8.80;2.47;;;;;;;;;;5154425;27;20200;-84
2022/10/11 13:33:30;;;;;;;5.95;2.92;;;;;;;;;;5154186;27;20251;-84
2022/10/11 13:35:58;;;;;;;7.10;2.95;;;;;;;;;;5154676;27;20204;-84
2022/10/11 13:38:27;;;;;;;6.82;2.90;;;;;;;;;;5154051;27;20214;-84
2022/10/11 13:40:57;;;;;;;6.07;2.47;;;;;;;;;;5154457;27;20231;-84
2022/10/11 13:43:26;;;;;;;5.50;2.40;;;;;;;;;;5155953;27;20211;-84
2022/10/11 13:45:53;;;;;;;5.65;2.15;;;;;;;;;;5173600;27;20220;-83
2022/10/11 13:48:21;;;;;;;5.28;2.30;;;;;;;;;;5153859;27;20208;-84
2022/10/11 13:51:03;;;;;;;3.40;2.08;;;;;;;;;;5154270;27;20272;-84
2022/10/11 13:53:30;;;;;;;5.80;2.53;;;;;;;;;;5154047;27;20216;-84
2022/10/11 13:56:00;;;;;;;5.43;2.10;;;;;;;;;;5154352;27;20192;-84
2022/10/11 13:58:28;;;;;;;5.82;2.25;;;;;;;;;;5154156;27;20226;-84
2022/10/11 14:00:56;;;;;;;6.13;2.00;;;;;;;;;;5154424;27;20204;-84
2022/10/11 14:03:24;;;;;;;5.05;2.00;;;;;;;;;;5153464;27;20200;-84
2022/10/11 14:05:56;;;;;;;5.90;2.50;;;;;;;;;;5169776;27;20240;-84
2022/10/11 14:08:25;;;;;;;6.80;2.28;;;;;;;;;;5174739;27;20323;-84
2022/10/11 14:10:53;;;;;;;4.32;2.28;;;;;;;;;;5163056;27;20191;-84
2022/10/11 14:13:29;;;;;;;4.65;2.30;;;;;;;;;;5157139;27;20707;-84
2022/10/11 14:16:01;;;;;;;5.97;2.20;;;;;;;;;;5154372;27;20200;-84
2022/10/11 14:18:34;;;;;;;7.90;2.47;;;;;;;;;;5153962;27;20701;-84
2022/10/11 14:21:16;;;;;;;4.90;2.30;;;;;;;;;;5154190;27;20193;-85
2022/10/11 14:23:44;;;;;;;5.93;2.30;;;;;;;;;;5153925;27;20667;-85
2022/10/11 14:26:12;;;;;;;4.80;2.40;;;;;;;;;;5153806;27;20196;-84
2022/10/11 14:28:41;;;;;;;5.65;2.20;;;;;;;;;;5153906;27;20288;-84
2022/10/11 14:31:09;;;;;;;8.57;2.42;;;;;;;;;;5154162;27;20200;-84
2022/10/11 14:33:36;;;;;;;7.93;2.83;;;;;;;;;;5171973;27;20225;-84
2022/10/11 14:36:04;;;;;;;7.45;2.47;;;;;;;;;;5174028;27;20196;-84
2022/10/11 14:38:31;;;;;;;5.57;2.53;;;;;;;;;;5174679;27;20671;-84
2022/10/11 14:40:58;;;;;;;7.05;2.17;;;;;;;;;;5164483;27;20619;-84
2022/10/11 14:43:25;;;;;;;4.78;2.20;;;;;;;;;;5153636;27;20237;-84
2022/10/11 14:45:54;;;;;;;3.45;1.80;;;;;;;;;;5153557;27;20189;-84
2022/10/11 14:48:21;;;;;;;5.43;1.83;;;;;;;;;;5154134;27;20227;-85
2022/10/11 14:50:51;;;;;;;3.08;1.48;;;;;;;;;;5153895;27;20249;-84
2022/10/11 14:53:18;;;;;;;4.53;1.65;;;;;;;;;;5171737;27;20721;-84
2022/10/11 14:55:45;;;;;;;4.80;2.25;;;;;;;;;;5171645;27;20269;-85